Dauntless Aviation
Airports Europe Germany
EDSW

Altdorf-Wallburg Airport

Altdorf, GERMANY

Airport Info
Suggest Updated Information for this Airport

Location

Latitude / Longitude: 48°16'12"N / 7°50'30"E
  48°16.2'N / 7°50.514'E
  48.2700 / 7.8419
Satellite photo at:
Airport distance calculator
From:
Weather Reports

METAR

EDTL
5.8nm NW
EDTL 121320Z 26011KT 9999 SCT022 BKN057 05/M02 Q1013
LFST
18.2nm NW
LFST 121330Z AUTO 21007KT 180V240 9999 SCT039 BKN047 06/M01 Q1013 TEMPO BKN030TCU
LFGA
22.2nm SW
LFGA 121330Z AUTO 21008KT 9999 FEW052 06/M03 Q1013
EDSB
32.3nm N
EDSB 121350Z 25005KT 220V290 9999 FEW026 SCT051 04/01 Q1013

TAF

EDTL
5.8nm NW
TAF EDTL 121100Z 1212/1221 21010KT 9999 BKN045 BECMG 1215/1218 20005KT
LFST
18.2nm NW
TAF LFST 121100Z 1212/1312 23010KT 9999 FEW025 BKN040 PROB30 TEMPO 1212/1218 -SHRA BKN030TCU PROB30 TEMPO 1300/1305 5000 BR PROB30 TEMPO 1310/1312 18013G23KT PROB30 TEMPO 1311/1312 -RA
EDSB
32.3nm N
TAF EDSB 121100Z 1212/1312 23009KT 9999 BKN035 BECMG 1306/1309 20015G25KT
Safelog

 

Dauntless Aviation

© 2007-2017 Dauntless Aviation, all rights reserved
Information provided via PilotNav comes from a variety of official and unofficial data sources. As errors are possible, do not use PilotNav for primary flight planning purposes. Verify any information that you receive via PilotNav with current and canonical charts and other official documents. The material in this database is subject to database copyrights held by Dauntless Aviation and may not be copied without the express permission of Dauntless Aviation - licenses for use of part of all of this data are available for purchase; enquire via the Dauntless Aviation helpdesk. A number of mechanisms and markers exist in the database to protect against and identify infringement / copyright. Automated queries against this website are stictly prohibited, and all activity is logged and analyzed.